Time;durP1;ratioP1;P1;durP2;ratioP2;P2;SDS_P1;SDS_P2;PMS_P1;PMS_P2;Temp;Humidity;BMP_temperature;BMP_pressure;BME280_temperature;BME280_humidity;BME280_pressure;Samples;Min_cycle;Max_cycle;Signal;HPM_P1;HPM_P2
2022/03/10 00:03:40;;;;;;;12.53;8.40;;;7.70;30.20;;;8.89;27.48;99421.81;4828897;29;115166;-78
2022/03/10 00:06:58;;;;;;;17.00;9.17;;;8.90;30.80;;;8.87;27.93;99424.88;4825064;29;124165;-77
2022/03/10 00:13:06;;;;;;;15.30;8.50;;;7.10;30.00;;;8.76;28.06;99440.63;4810463;29;115248;-79
2022/03/10 06:10:42;;;;;;;15.80;9.00;;;5.20;40.30;;;5.79;35.40;99497.34;4829930;29;125087;-77
2022/03/10 06:16:51;;;;;;;22.27;11.57;;;3.90;40.00;;;6.41;34.71;99509.50;4847591;29;115150;-77
2022/03/10 06:55:45;;;;;;;19.47;11.40;;;6.00;41.00;;;6.72;34.75;99513.22;5680677;23;98401;-79
2022/03/10 07:01:54;;;;;;;18.43;11.27;;;4.60;39.80;;;6.76;34.60;99508.00;4848341;29;115171;-78
2022/03/10 07:08:03;;;;;;;19.50;10.80;;;4.90;39.90;;;6.87;34.90;99517.91;4848148;29;124769;-80
2022/03/10 07:14:11;;;;;;;21.20;11.20;;;4.80;39.70;;;7.02;35.10;99519.88;4848322;29;114891;-77
2022/03/10 08:33:37;;;;;;;23.07;11.30;;;7.80;39.90;;;8.67;33.36;99513.94;5647999;23;98677;-80
2022/03/10 08:39:46;;;;;;;17.93;10.70;;;6.60;38.70;;;8.93;33.13;99511.91;4846612;29;124209;-81
2022/03/10 08:45:57;;;;;;;18.20;10.70;;;7.90;39.50;;;9.16;32.92;99515.91;4846936;29;114996;-78
2022/03/10 08:52:06;;;;;;;22.93;12.10;;;8.40;39.60;;;9.34;33.31;99489.56;4846803;29;124810;-81
2022/03/10 08:58:15;;;;;;;24.67;14.60;;;8.60;40.40;;;9.55;33.18;99484.72;4846624;29;116596;-79
2022/03/10 09:04:23;;;;;;;24.30;13.37;;;7.60;39.10;;;9.63;33.17;99486.03;4827713;29;124962;-84
2022/03/10 09:10:32;;;;;;;20.60;12.97;;;10.10;39.60;;;9.72;32.87;99478.78;4827925;29;115002;-81
2022/03/10 09:16:45;;;;;;;21.23;11.87;;;8.90;39.10;;;9.87;32.84;99484.16;4846160;29;126087;-79
2022/03/10 09:26:37;;;;;;;21.30;11.47;;;9.20;39.00;;;10.06;32.50;99469.63;4827530;29;124980;-87
2022/03/10 09:38:25;;;;;;;17.10;10.30;;;9.50;38.90;;;10.37;32.22;99456.31;3941226;27;96485;-94
2022/03/10 09:44:36;;;;;;;14.80;9.43;;;9.70;38.90;;;10.58;31.93;99448.56;4817104;29;114749;-92
2022/03/10 09:47:04;;;;;;;12.50;8.50;;;9.80;38.80;;;10.66;31.65;99458.16;4803416;29;113147;-93
2022/03/10 09:49:34;;;;;;;18.30;11.00;;;9.90;38.90;;;10.75;31.77;99456.38;4792885;29;122433;-90
2022/03/10 09:52:57;;;;;;;17.50;10.30;;;9.90;38.70;;;10.82;32.00;99451.28;4803316;29;122470;-93
2022/03/10 09:55:23;;;;;;;13.07;8.27;;;10.00;37.70;;;10.89;32.03;99451.75;4804405;29;114304;-91
2022/03/10 09:57:50;;;;;;;14.27;7.90;;;10.90;38.40;;;10.99;31.90;99451.59;4817230;29;114823;-82
2022/03/10 10:00:36;;;;;;;18.10;9.07;;;10.10;37.60;;;11.08;31.34;99448.16;4804487;29;124814;-92
2022/03/10 10:03:04;;;;;;;15.17;9.10;;;10.50;37.90;;;11.14;31.83;99445.00;4812765;29;124309;-94
2022/03/10 10:05:39;;;;;;;13.30;8.17;;;10.70;37.80;;;11.24;31.19;99446.81;4819028;29;114023;-95
2022/03/10 10:08:26;;;;;;;15.27;8.23;;;10.30;37.50;;;11.31;31.36;99438.09;4817790;29;114622;-91
2022/03/10 10:11:14;;;;;;;15.10;9.93;;;10.50;37.40;;;11.40;31.33;99437.13;4816587;29;123617;-93
2022/03/10 10:13:42;;;;;;;12.30;7.73;;;10.40;37.20;;;11.45;31.14;99437.03;4795573;29;124457;-92
2022/03/10 10:16:31;;;;;;;15.53;9.43;;;10.60;37.20;;;11.55;31.00;99432.44;4804965;29;113755;-93
2022/03/10 10:22:39;;;;;;;10.47;6.83;;;10.80;37.10;;;11.72;30.40;99416.09;4823785;29;125147;-92
2022/03/10 10:25:56;;;;;;;10.90;7.10;;;10.90;36.90;;;11.84;30.50;99410.88;4804424;29;122064;-95
2022/03/10 10:29:02;;;;;;;9.63;5.77;;;10.30;36.00;;;11.96;30.59;99406.84;4824990;29;115995;-85
2022/03/10 10:31:30;;;;;;;9.20;5.50;;;11.20;36.40;;;12.07;30.47;99411.03;4839017;29;114472;-92
2022/03/10 10:34:16;;;;;;;9.60;6.43;;;11.30;36.50;;;12.21;30.53;99403.53;4837107;29;123615;-95
2022/03/10 10:36:43;;;;;;;9.87;5.77;;;11.40;36.30;;;12.34;30.14;99393.59;4827187;29;121733;-93
2022/03/10 10:42:53;;;;;;;10.30;6.50;;;11.70;36.20;;;12.63;29.85;99395.16;4824938;29;114436;-94
2022/03/10 10:45:36;;;;;;;10.70;6.77;;;11.80;36.10;;;12.74;29.63;99382.72;4810455;29;123172;-96
2022/03/10 10:48:23;;;;;;;9.67;5.70;;;12.00;35.70;;;12.89;29.02;99376.00;4828510;29;123506;-93
2022/03/10 10:50:51;;;;;;;7.70;5.30;;;12.10;35.00;;;13.00;28.88;99371.84;4825696;29;116508;-95
2022/03/10 10:57:05;;;;;;;10.80;5.30;;;12.40;35.00;;;13.33;28.27;99377.19;4839016;29;124459;-94
2022/03/10 11:00:12;;;;;;;8.23;5.40;;;12.50;34.20;;;13.45;27.35;99369.91;4819028;29;124195;-93
2022/03/10 11:03:00;;;;;;;7.50;4.87;;;12.70;33.20;;;13.58;27.36;99368.19;4825406;29;113909;-94
2022/03/10 11:06:04;;;;;;;7.93;4.80;;;12.90;33.20;;;13.71;27.46;99363.69;4825265;29;113649;-91
2022/03/10 11:12:16;;;;;;;8.23;4.80;;;13.10;32.90;;;14.03;27.06;99350.56;4921621;23;124051;-91
2022/03/10 11:19:02;;;;;;;6.57;4.03;;;13.50;32.60;;;14.42;26.09;99344.13;4827930;29;114502;-91
2022/03/10 11:22:16;;;;;;;5.80;3.90;;;13.60;31.90;;;14.56;25.84;99344.84;4791126;29;124726;-87
2022/03/10 11:25:21;;;;;;;4.20;2.93;;;13.80;31.20;;;14.74;25.74;99342.06;4826862;29;123587;-86
2022/03/10 11:31:36;;;;;;;8.83;3.33;;;14.20;30.80;;;15.10;25.66;99338.94;4823794;29;115376;-93
2022/03/10 11:37:49;;;;;;;4.40;2.87;;;14.50;30.00;;;15.41;24.62;99327.56;4812715;29;124823;-93
2022/03/10 11:40:56;;;;;;;4.50;3.23;;;14.60;29.70;;;15.53;24.09;99324.09;4818395;29;113834;-94
2022/03/10 11:43:56;;;;;;;5.50;3.60;;;14.80;29.20;;;15.65;24.04;99326.19;4820162;29;113750;-94
2022/03/10 11:46:29;;;;;;;4.33;3.03;;;14.90;29.10;;;15.78;23.80;99322.41;4815174;29;124019;-93
2022/03/10 11:49:15;;;;;;;4.67;3.10;;;15.10;29.10;;;15.88;23.75;99315.63;4808978;29;123936;-92
2022/03/10 11:52:29;;;;;;;3.50;2.90;;;15.20;29.00;;;16.00;23.72;99310.16;4758211;29;113861;-93
2022/03/10 11:55:55;;;;;;;2.90;2.43;;;15.30;29.00;;;16.19;23.85;99300.53;4741969;29;112707;-94
2022/03/10 11:58:42;;;;;;;5.70;2.57;;;15.40;29.30;;;16.40;23.69;99295.00;4764082;29;97553;-92
2022/03/10 12:04:57;;;;;;;4.23;3.20;;;15.80;28.50;;;16.71;22.69;99294.56;4747731;29;114423;-93
2022/03/10 12:11:12;;;;;;;5.23;3.40;;;16.00;27.90;;;16.93;22.05;99288.66;4757542;29;124583;-94
2022/03/10 12:13:46;;;;;;;3.43;2.73;;;16.20;27.30;;;17.09;21.79;99272.09;4752616;29;124678;-93
2022/03/10 12:16:37;;;;;;;4.07;2.77;;;16.30;27.30;;;17.27;22.03;99277.47;4738797;29;114310;-95
2022/03/10 12:23:25;;;;;;;4.43;2.97;;;16.70;27.30;;;17.62;21.01;99267.53;4772232;29;123984;-92
2022/03/10 12:26:02;;;;;;;3.83;3.10;;;16.90;26.50;;;17.78;21.79;99269.63;4799848;29;124382;-94
2022/03/10 12:28:42;;;;;;;3.10;2.73;;;17.00;27.10;;;17.98;21.57;99268.72;4782580;29;115394;-91
2022/03/10 12:31:32;;;;;;;8.57;2.83;;;17.20;27.40;;;18.17;21.15;99258.94;4802651;29;114646;-94
2022/03/10 12:34:25;;;;;;;5.70;2.70;;;17.10;26.70;;;18.30;21.23;99246.56;4802559;29;123360;-94
2022/03/10 12:36:54;;;;;;;4.80;3.10;;;17.50;26.90;;;18.49;20.94;99255.13;4709467;29;124303;-92
2022/03/10 12:39:23;;;;;;;3.27;2.67;;;17.70;26.90;;;18.66;20.63;99242.00;4717997;29;113577;-94
2022/03/10 12:42:26;;;;;;;4.20;2.93;;;17.80;26.40;;;18.82;20.88;99250.50;4703077;29;113648;-92
2022/03/10 12:44:56;;;;;;;3.73;2.73;;;18.00;26.70;;;19.01;20.57;99247.00;4706804;29;123497;-92
2022/03/10 12:48:05;;;;;;;2.87;2.50;;;18.20;26.70;;;19.12;20.54;99240.53;4685470;29;120667;-93
2022/03/10 12:50:52;;;;;;;3.60;3.07;;;18.30;26.20;;;19.26;20.28;99231.69;4718743;29;114202;-94
2022/03/10 12:53:19;;;;;;;5.10;3.13;;;18.40;26.20;;;19.38;19.99;99234.41;4702057;29;111852;-94
2022/03/10 12:55:55;;;;;;;5.67;3.27;;;18.50;25.70;;;19.51;19.71;99231.53;4726295;29;123795;-94
2022/03/10 12:58:48;;;;;;;3.37;2.97;;;18.70;25.60;;;19.64;19.89;99233.06;4707703;29;123293;-94
2022/03/10 13:01:17;;;;;;;3.57;2.60;;;18.80;25.40;;;19.81;19.20;99213.06;4716150;29;114511;-94
2022/03/10 13:04:12;;;;;;;3.47;2.67;;;19.00;25.30;;;20.00;19.31;99205.91;4695107;29;113818;-93
2022/03/10 13:06:40;;;;;;;3.00;2.40;;;19.20;25.40;;;20.20;19.26;99213.19;4664589;30;123394;-94
2022/03/10 13:09:08;;;;;;;2.70;2.50;;;19.40;25.40;;;20.40;19.33;99210.41;4666438;30;121626;-95
2022/03/10 13:11:39;;;;;;;2.90;2.30;;;19.50;25.50;;;20.57;19.26;99198.75;4646963;30;113592;-93
2022/03/10 13:14:13;;;;;;;3.53;3.03;;;19.70;25.60;;;20.72;18.52;99195.03;4693067;29;114009;-94
2022/03/10 13:17:03;;;;;;;3.80;3.40;;;19.80;24.70;;;20.82;18.69;99198.41;4714586;29;124007;-93
2022/03/10 13:19:29;;;;;;;3.83;2.90;;;20.00;24.70;;;20.93;18.49;99193.84;4713595;29;121939;-93
2022/03/10 13:22:03;;;;;;;3.90;2.97;;;20.10;24.80;;;21.04;18.39;99186.44;4699307;29;114497;-94
2022/03/10 13:24:41;;;;;;;3.37;3.00;;;20.20;24.30;;;21.16;18.43;99179.81;4718811;29;115382;-95
2022/03/10 13:27:15;;;;;;;3.10;2.50;;;20.40;24.70;;;21.34;18.37;99180.13;4721070;29;123567;-96
2022/03/10 13:29:47;;;;;;;4.97;3.00;;;20.50;24.80;;;21.49;18.17;99176.38;4717895;29;123563;-94
2022/03/10 13:32:18;;;;;;;4.57;3.53;;;20.70;24.40;;;21.51;16.97;99173.19;4706597;29;113543;-94
2022/03/10 13:35:06;;;;;;;4.17;3.30;;;20.70;22.80;;;21.53;17.80;99182.06;4718038;29;113400;-92
2022/03/10 13:37:36;;;;;;;3.10;2.77;;;20.80;23.60;;;21.66;17.63;99177.06;4712045;29;124066;-93
2022/03/10 13:40:21;;;;;;;2.57;2.37;;;19.30;22.60;;;21.82;17.53;99172.09;4709233;29;124104;-94
2022/03/10 13:42:58;;;;;;;2.63;2.30;;;21.10;23.80;;;22.01;17.21;99169.16;4722966;29;114575;-93
2022/03/10 13:45:42;;;;;;;7.10;2.97;;;21.20;23.50;;;22.09;16.64;99155.19;4800710;29;113471;-96
2022/03/10 13:48:34;;;;;;;2.87;2.33;;;21.30;22.50;;;22.18;16.55;99150.06;4786866;29;125003;-93
2022/03/10 13:51:05;;;;;;;3.20;2.73;;;21.30;22.70;;;22.35;16.83;99155.13;4798188;29;122673;-93
2022/03/10 13:53:33;;;;;;;3.20;2.90;;;21.50;22.80;;;22.53;16.56;99154.56;4805504;29;113852;-95
2022/03/10 13:56:41;;;;;;;2.60;2.40;;;21.70;22.70;;;22.75;16.67;99158.41;4793264;29;115749;-95
2022/03/10 13:59:26;;;;;;;4.20;2.77;;;21.90;22.90;;;22.93;15.74;99145.34;4806420;29;124420;-96
2022/03/10 14:01:52;;;;;;;4.70;3.53;;;22.10;22.10;;;23.00;16.00;99144.63;4811641;29;123676;-92
2022/03/10 14:04:20;;;;;;;3.17;2.60;;;22.20;22.00;;;23.13;16.38;99149.59;4809052;29;113348;-94
2022/03/10 14:06:52;;;;;;;3.00;2.70;;;22.40;22.50;;;23.31;16.13;99137.66;4799128;29;113631;-95
2022/03/10 14:09:57;;;;;;;3.20;2.77;;;22.50;22.20;;;23.45;15.58;99132.13;4760548;29;123191;-93
2022/03/10 14:12:26;;;;;;;2.70;2.10;;;22.70;21.70;;;23.55;15.69;99125.75;4808651;29;123142;-94
2022/03/10 14:14:54;;;;;;;3.20;2.60;;;22.80;22.10;;;23.70;15.64;99126.69;4785967;29;113669;-93
2022/03/10 14:17:45;;;;;;;6.03;2.60;;;22.90;22.20;;;23.87;15.67;99113.09;4801119;29;114236;-93
2022/03/10 14:20:12;;;;;;;3.03;2.73;;;23.10;21.80;;;24.03;15.59;99122.06;4803388;29;124126;-95
2022/03/10 14:22:42;;;;;;;2.77;2.40;;;23.20;21.80;;;24.16;15.26;99116.88;4796586;29;122586;-94
2022/03/10 14:25:10;;;;;;;7.23;2.17;;;23.40;21.80;;;24.27;15.22;99112.09;4794561;29;113756;-93
2022/03/10 14:27:45;;;;;;;8.37;2.90;;;23.60;21.60;;;24.36;15.11;99108.88;4801720;29;113644;-93
2022/03/10 14:30:23;;;;;;;2.87;2.40;;;23.70;21.40;;;24.49;15.26;99107.34;4801638;29;123304;-91
2022/03/10 14:32:49;;;;;;;2.63;2.43;;;23.80;21.50;;;24.59;14.87;99103.75;4786190;29;123940;-92
2022/03/10 14:35:16;;;;;;;2.77;2.20;;;23.90;21.40;;;24.66;14.87;99103.78;4771976;29;114222;-92
2022/03/10 14:37:44;;;;;;;2.30;2.10;;;24.00;21.00;;;24.73;14.60;99102.16;4805385;29;114766;-92
2022/03/10 14:40:14;;;;;;;3.40;2.20;;;24.10;21.10;;;24.85;14.76;99093.28;4802766;29;123296;-93
2022/03/10 14:42:40;;;;;;;2.53;2.33;;;24.20;21.00;;;24.97;14.78;99095.75;4794293;29;123627;-93
2022/03/10 14:45:08;;;;;;;2.53;2.17;;;24.30;20.90;;;25.03;14.34;99090.50;4802371;29;114910;-92
2022/03/10 14:47:35;;;;;;;2.90;2.60;;;24.40;20.70;;;25.07;14.04;99091.31;4783614;29;113269;-91
2022/03/10 14:50:04;;;;;;;2.83;2.63;;;24.50;20.10;;;25.06;13.91;99089.69;4799339;29;123334;-92
2022/03/10 14:52:31;;;;;;;1.80;1.60;;;24.50;19.80;;;25.12;13.80;99088.91;4785869;29;122607;-90
2022/03/10 14:54:58;;;;;;;2.20;1.73;;;24.50;20.10;;;25.20;14.10;99083.25;4799378;29;114367;-92
2022/03/10 14:57:45;;;;;;;2.30;1.87;;;24.60;20.10;;;25.32;13.74;99082.84;4793143;29;113127;-93
2022/03/10 15:00:15;;;;;;;3.70;2.20;;;24.70;20.00;;;25.37;13.89;99073.97;4786044;29;123971;-91
2022/03/10 15:02:44;;;;;;;2.63;1.80;;;24.80;19.90;;;25.44;13.79;99067.47;4783490;29;124109;-92
2022/03/10 15:05:13;;;;;;;1.70;1.60;;;24.90;19.90;;;25.52;13.68;99074.72;4821171;29;115212;-91
2022/03/10 15:07:41;;;;;;;2.80;1.80;;;24.90;19.80;;;25.63;13.41;99066.22;4795962;29;114125;-93
2022/03/10 15:10:26;;;;;;;2.23;2.03;;;25.00;19.70;;;25.67;13.20;99065.00;4787306;29;123525;-91
2022/03/10 15:12:55;;;;;;;3.53;1.67;;;25.10;19.40;;;25.74;13.11;99067.81;4789886;29;123916;-93
2022/03/10 15:15:41;;;;;;;3.00;2.40;;;25.20;19.50;;;25.83;13.36;99066.59;4784760;29;113784;-95
2022/03/10 15:18:07;;;;;;;2.37;2.17;;;25.30;19.00;;;25.89;13.42;99065.78;4787529;29;113317;-95
2022/03/10 15:20:35;;;;;;;2.70;1.97;;;25.30;19.20;;;25.93;13.37;99058.09;4791890;29;123911;-92
2022/03/10 15:23:07;;;;;;;2.57;2.20;;;25.40;19.30;;;26.02;13.17;99056.84;4798595;29;123231;-93
2022/03/10 15:25:36;;;;;;;2.27;2.07;;;25.50;19.00;;;26.06;13.06;99060.44;4802534;29;114117;-90
2022/03/10 15:28:09;;;;;;;2.30;2.10;;;25.50;19.00;;;26.13;12.79;99054.78;4786590;29;112759;-94
2022/03/10 15:30:40;;;;;;;2.83;2.40;;;25.60;19.10;;;26.18;12.89;99052.31;4786486;29;123135;-93
2022/03/10 15:33:27;;;;;;;3.73;3.00;;;25.70;18.90;;;26.17;12.07;99055.56;4802878;29;124173;-92
2022/03/10 15:35:54;;;;;;;2.80;2.47;;;25.70;17.80;;;26.12;12.60;99048.31;4804595;29;113219;-94
2022/03/10 15:38:21;;;;;;;2.40;2.10;;;25.70;18.20;;;26.11;12.90;99043.84;4794852;29;114362;-94
2022/03/10 15:40:48;;;;;;;2.20;2.00;;;25.70;18.20;;;26.15;12.32;99041.81;4794403;29;124239;-94
2022/03/10 15:43:18;;;;;;;3.10;2.67;;;25.70;18.20;;;26.17;12.60;99035.75;4786289;29;124214;-91
2022/03/10 15:45:45;;;;;;;2.30;2.10;;;25.80;18.10;;;26.18;12.62;99035.31;4802809;29;114899;-92
2022/03/10 15:48:12;;;;;;;2.07;1.87;;;25.80;18.10;;;26.23;12.70;99043.38;4788445;29;112193;-90
2022/03/10 15:50:40;;;;;;;2.90;2.53;;;25.80;18.10;;;26.31;12.60;99032.03;4778363;29;123484;-95
2022/03/10 15:53:07;;;;;;;3.10;2.47;;;25.90;18.00;;;26.28;12.44;99033.66;4784123;29;122561;-92
2022/03/10 15:55:35;;;;;;;3.10;2.17;;;26.00;17.70;;;26.29;12.08;99034.47;4792605;29;115694;-92
2022/03/10 15:58:22;;;;;;;2.50;2.30;;;26.00;17.80;;;26.28;12.67;99030.84;4793469;29;115776;-93
2022/03/10 16:00:50;;;;;;;3.00;2.00;;;26.10;17.80;;;26.32;12.58;99034.44;4802789;29;123130;-92
2022/03/10 16:03:18;;;;;;;4.20;2.77;;;26.20;18.40;;;26.39;12.49;99036.44;4800644;29;122896;-91
2022/03/10 16:05:45;;;;;;;2.50;2.30;;;26.30;17.50;;;26.37;12.11;99025.50;4785036;29;114981;-90
2022/03/10 16:08:12;;;;;;;3.30;2.30;;;26.30;17.50;;;26.39;12.49;99028.75;4797884;29;113184;-91
2022/03/10 16:10:39;;;;;;;2.20;2.00;;;26.40;17.50;;;26.42;12.05;99019.41;4798947;29;124348;-92
2022/03/10 16:13:06;;;;;;;2.60;2.40;;;26.50;17.50;;;26.50;12.40;99025.03;4795136;29;122691;-92
2022/03/10 16:15:32;;;;;;;2.60;2.40;;;26.50;17.40;;;26.54;12.23;99014.50;4792981;29;114188;-92
2022/03/10 16:17:59;;;;;;;4.13;2.77;;;26.60;17.30;;;26.56;11.81;99020.56;4788576;29;114457;-91
2022/03/10 16:20:26;;;;;;;2.50;2.30;;;26.70;17.20;;;26.53;11.77;99025.03;4781753;29;123578;-92
2022/03/10 16:22:52;;;;;;;4.00;2.23;;;26.70;17.10;;;26.50;12.18;99025.03;4792072;29;121870;-90
2022/03/10 16:25:18;;;;;;;3.40;3.10;;;26.60;16.90;;;26.44;12.08;99021.84;4792310;29;114766;-93
2022/03/10 16:27:47;;;;;;;2.90;2.60;;;26.60;16.80;;;26.35;11.54;99019.44;4792803;29;114877;-91
2022/03/10 16:30:15;;;;;;;3.23;2.90;;;26.50;16.60;;;26.28;11.47;99030.03;4785137;29;123770;-92
2022/03/10 16:32:42;;;;;;;3.60;2.90;;;26.40;16.40;;;26.14;11.96;99028.06;4784074;29;124556;-92
2022/03/10 16:35:09;;;;;;;2.63;2.43;;;26.20;16.40;;;26.06;11.64;99020.81;4795594;29;114728;-92
2022/03/10 16:37:36;;;;;;;3.33;3.03;;;26.10;16.60;;;26.08;11.68;99024.84;4785635;29;113984;-92
2022/03/10 16:40:06;;;;;;;3.20;2.53;;;26.10;16.60;;;25.96;11.63;99020.47;4778918;29;123108;-92
2022/03/10 16:42:32;;;;;;;4.37;2.70;;;26.00;16.50;;;25.72;11.73;99027.00;4791565;29;123794;-93
2022/03/10 16:45:00;;;;;;;3.93;3.10;;;25.80;16.40;;;25.45;11.53;99033.13;4775935;29;114708;-91
2022/03/10 16:47:27;;;;;;;3.30;3.00;;;25.60;16.30;;;25.18;12.14;99029.13;4758010;29;115390;-91
2022/03/10 16:49:56;;;;;;;4.17;3.40;;;25.30;16.20;;;24.89;11.86;99029.09;4795193;29;123810;-92
2022/03/10 16:52:23;;;;;;;4.43;2.93;;;25.10;16.30;;;24.64;12.22;99026.28;4798692;29;122745;-92
2022/03/10 16:54:50;;;;;;;4.77;3.70;;;24.80;16.30;;;24.38;12.15;99024.56;4778656;29;112758;-93
2022/03/10 16:57:17;;;;;;;3.90;3.10;;;24.60;16.30;;;24.12;12.20;99032.16;4790002;29;113517;-92
2022/03/10 16:59:45;;;;;;;3.70;2.97;;;24.30;16.30;;;23.89;12.58;99029.66;4786256;29;122379;-94
2022/03/10 17:02:14;;;;;;;5.03;3.50;;;24.10;16.40;;;23.69;12.40;99031.13;4799141;29;124433;-94
2022/03/10 17:04:43;;;;;;;3.33;3.03;;;23.80;16.40;;;23.45;12.61;99035.44;4780282;29;114788;-91
2022/03/10 17:07:13;;;;;;;6.33;4.07;;;23.60;16.50;;;23.21;12.58;99034.88;4787650;29;113089;-93
2022/03/10 17:09:44;;;;;;;4.60;3.63;;;23.30;16.40;;;22.91;12.82;99041.44;4788052;29;123172;-94
2022/03/10 17:12:10;;;;;;;5.67;3.70;;;23.00;16.40;;;22.66;13.16;99041.25;4800353;29;124031;-93
2022/03/10 17:14:37;;;;;;;3.87;3.47;;;22.80;16.60;;;22.46;13.01;99046.28;4797908;29;114282;-92
2022/03/10 17:17:03;;;;;;;4.67;3.27;;;22.50;16.70;;;22.27;12.93;99044.47;4778104;29;113855;-93
2022/03/10 17:19:32;;;;;;;3.27;2.97;;;22.30;16.70;;;22.09;13.40;99045.44;4792303;29;123371;-93
2022/03/10 17:21:59;;;;;;;3.60;2.70;;;22.10;16.80;;;21.91;13.40;99040.38;4797286;29;124359;-94
2022/03/10 17:24:27;;;;;;;4.10;3.30;;;21.90;16.90;;;21.75;13.76;99053.84;4798169;29;113382;-93
2022/03/10 17:26:56;;;;;;;3.40;2.73;;;21.70;16.90;;;21.54;13.75;99048.72;4783374;29;113904;-94
2022/03/10 17:29:24;;;;;;;4.43;3.20;;;21.60;17.10;;;21.35;13.82;99058.88;4799365;29;123228;-92
2022/03/10 17:32:11;;;;;;;3.47;3.10;;;21.30;17.00;;;21.14;14.08;99055.72;4779659;29;122659;-93
2022/03/10 17:34:38;;;;;;;4.03;3.40;;;21.10;17.10;;;20.92;14.04;99058.19;4799064;29;115164;-93
2022/03/10 17:37:42;;;;;;;3.23;2.90;;;20.90;17.20;;;20.71;14.11;99069.88;4772815;29;114156;-92
2022/03/10 17:40:10;;;;;;;3.47;2.90;;;20.70;17.20;;;20.56;14.36;99058.75;4804202;29;122900;-92
2022/03/10 17:42:37;;;;;;;5.00;3.57;;;20.50;17.30;;;20.39;14.07;99068.41;4758133;29;122087;-91
2022/03/10 17:45:05;;;;;;;4.07;3.33;;;20.30;17.30;;;20.20;14.36;99069.25;4802982;29;113371;-92
2022/03/10 17:48:10;;;;;;;3.33;3.03;;;20.10;17.30;;;19.96;14.48;99071.19;4808304;29;113168;-93
2022/03/10 17:50:56;;;;;;;3.53;3.07;;;19.90;17.50;;;19.78;14.46;99075.63;4804433;29;123459;-93
2022/03/10 17:53:27;;;;;;;4.00;3.27;;;19.70;17.50;;;19.61;14.71;99069.22;4784173;29;122069;-93
2022/03/10 17:55:54;;;;;;;4.30;3.10;;;19.50;17.60;;;19.50;14.92;99072.94;4787446;29;114816;-93
2022/03/10 17:58:21;;;;;;;3.87;3.30;;;21.00;18.90;;;19.37;14.93;99078.69;4788298;29;113366;-92
2022/03/10 18:00:49;;;;;;;3.10;2.80;;;19.20;17.80;;;19.25;14.93;99078.78;4767167;29;122073;-92
2022/03/10 18:03:53;;;;;;;3.57;2.90;;;19.10;17.90;;;19.08;15.06;99084.78;4776535;29;123373;-92
2022/03/10 18:06:57;;;;;;;3.40;2.70;;;18.90;17.90;;;18.89;15.08;99089.09;4792696;29;113626;-93
2022/03/10 18:09:44;;;;;;;3.10;2.80;;;18.70;18.00;;;18.75;15.08;99089.56;4792817;29;114014;-93
2022/03/10 18:12:11;;;;;;;3.93;2.70;;;18.60;18.00;;;18.63;15.39;99091.59;4786660;29;124540;-92
2022/03/10 18:18:39;;;;;;;4.00;3.07;;;18.30;18.10;;;18.29;15.30;99083.47;4800153;29;113938;-93
2022/03/10 18:21:44;;;;;;;3.53;2.70;;;18.10;18.20;;;18.13;15.64;99087.41;4793514;29;113531;-93
2022/03/10 18:31:54;;;;;;;12.90;3.43;;;17.60;18.50;;;17.61;16.12;99089.84;4804225;29;115388;-92
2022/03/10 18:34:24;;;;;;;3.67;3.33;;;17.40;18.60;;;17.51;15.78;99086.72;4793619;29;116548;-92
2022/03/10 18:36:50;;;;;;;4.97;3.30;;;17.30;18.70;;;17.44;16.29;99081.75;4800341;29;123586;-93
2022/03/10 18:39:17;;;;;;;5.93;3.60;;;17.20;18.80;;;17.35;16.28;99084.66;4799082;29;122597;-93
2022/03/10 18:42:02;;;;;;;5.70;3.80;;;17.10;18.90;;;17.25;16.34;99090.72;4798648;29;114528;-93
2022/03/10 18:44:48;;;;;;;3.60;2.93;;;17.00;18.90;;;17.16;16.45;99076.88;4773056;29;113690;-93
2022/03/10 18:47:14;;;;;;;12.27;4.13;;;16.90;19.00;;;17.06;16.40;99088.53;4802002;29;123947;-92
2022/03/10 18:49:51;;;;;;;3.67;3.10;;;16.80;19.10;;;16.99;16.69;99082.69;4762149;29;122339;-91
2022/03/10 18:56:18;;;;;;;4.63;3.87;;;16.60;19.30;;;16.74;17.08;99079.84;4719765;29;114204;-92
2022/03/10 18:58:45;;;;;;;3.97;3.60;;;16.40;19.40;;;16.67;16.97;99087.16;4718737;29;124034;-90
2022/03/10 19:04:54;;;;;;;3.97;3.37;;;16.20;19.60;;;16.47;17.18;99084.13;4708096;30;115294;-91
2022/03/10 19:07:25;;;;;;;3.80;3.50;;;16.10;19.70;;;16.42;17.28;99077.94;4702643;29;113040;-92
2022/03/10 19:09:52;;;;;;;4.17;3.47;;;16.00;19.90;;;16.36;17.28;99080.09;4713653;29;123811;-92
2022/03/10 19:12:20;;;;;;;3.63;3.30;;;16.00;20.00;;;16.30;17.68;99079.50;4717820;29;123588;-87
2022/03/10 19:19:06;;;;;;;3.90;3.20;;;15.80;20.10;;;16.07;17.80;99081.06;4738016;29;114955;-93
2022/03/10 19:25:14;;;;;;;3.70;3.40;;;15.60;20.80;;;15.85;18.04;99074.72;4790830;29;126154;-91
2022/03/10 19:31:27;;;;;;;6.40;3.83;;;15.40;20.50;;;15.66;17.99;99074.31;4790843;29;115956;-81
2022/03/10 19:37:36;;;;;;;11.70;4.30;;;15.20;20.70;;;15.49;18.41;99075.28;4791282;29;124773;-86
2022/03/10 19:43:45;;;;;;;3.60;3.30;;;15.00;20.80;;;15.35;18.59;99067.19;4823078;29;114945;-79
2022/03/10 19:46:13;;;;;;;5.40;4.17;;;14.90;20.90;;;15.31;18.47;99060.63;4812614;29;125004;-79
2022/03/10 19:52:22;;;;;;;4.90;4.00;;;14.80;20.90;;;15.16;18.74;99058.47;4829146;29;115408;-78
2022/03/10 19:58:32;;;;;;;5.27;4.10;;;14.60;20.90;;;15.01;18.70;99059.84;4828110;29;124992;-80
2022/03/10 20:04:40;;;;;;;5.83;4.00;;;14.50;21.00;;;14.87;18.63;99056.50;4810493;29;115306;-80
2022/03/10 20:07:32;;;;;;;4.30;3.43;;;14.40;21.00;;;14.82;18.61;99054.72;4794142;29;112877;-85
2022/03/10 20:21:04;;;;;;;4.97;3.40;;;14.10;21.00;;;14.45;18.95;99065.44;4810443;29;114994;-91
2022/03/10 20:27:14;;;;;;;4.70;3.57;;;14.00;21.20;;;14.32;18.87;99066.47;4809925;29;124870;-77
2022/03/10 20:33:23;;;;;;;5.80;4.23;;;13.80;21.20;;;14.20;18.98;99060.78;4810045;29;115879;-76
2022/03/10 20:39:52;;;;;;;4.20;3.50;;;13.70;21.30;;;14.04;19.15;99075.19;4809611;29;124771;-78
2022/03/10 20:46:01;;;;;;;4.33;3.50;;;13.50;21.30;;;13.94;19.42;99064.41;4754431;29;114971;-79
2022/03/10 20:52:11;;;;;;;5.13;3.70;;;13.40;21.30;;;13.83;19.40;99061.13;4753634;29;123738;-81
2022/03/10 20:58:21;;;;;;;4.03;3.43;;;13.30;21.40;;;13.70;19.43;99054.63;4772265;29;114937;-76
2022/03/10 21:04:30;;;;;;;3.53;3.23;;;13.20;21.50;;;13.62;19.46;99068.50;4772154;29;124851;-78
2022/03/10 21:10:38;;;;;;;3.50;3.00;;;13.10;21.60;;;13.52;19.49;99066.06;4772506;29;115027;-85
2022/03/10 21:13:07;;;;;;;4.20;3.50;;;13.00;21.60;;;13.48;19.73;99061.13;4769950;29;124965;-79
2022/03/10 21:41:10;;;;;;;3.60;2.83;;;12.60;22.00;;;13.11;20.00;99037.56;5452539;23;97692;-76
2022/03/10 21:44:33;;;;;;;4.70;2.90;;;11.40;21.20;;;13.08;20.23;99048.47;4829818;29;115284;-76
2022/03/10 21:47:57;;;;;;;4.13;3.00;;;11.20;21.30;;;13.02;20.25;99039.50;4833042;29;124735;-91
2022/03/10 21:51:20;;;;;;;3.70;3.30;;;12.50;22.30;;;12.88;20.20;99028.53;4832988;29;124454;-89
2022/03/10 21:57:50;;;;;;;3.87;2.93;;;12.20;22.30;;;12.77;20.31;99019.69;4824099;29;115331;-88
2022/03/10 22:03:59;;;;;;;3.90;2.83;;;12.00;22.40;;;12.72;20.49;99019.03;4842128;29;124318;-89
2022/03/10 22:06:44;;;;;;;3.47;2.60;;;11.50;22.20;;;12.73;20.74;99015.09;4828363;29;115040;-90
2022/03/10 22:09:50;;;;;;;4.60;3.07;;;11.60;22.30;;;12.70;20.89;99019.34;4824727;29;113824;-89
2022/03/10 22:12:56;;;;;;;3.43;3.13;;;12.10;22.80;;;12.67;20.74;99017.22;4822246;29;124784;-89
2022/03/10 22:15:43;;;;;;;2.80;2.50;;;11.60;22.60;;;12.64;20.71;99020.63;4832404;29;123341;-89
2022/03/10 22:18:48;;;;;;;3.53;3.10;;;11.40;22.50;;;12.63;21.08;99016.22;4838415;29;114911;-91
2022/03/10 22:21:36;;;;;;;4.03;2.90;;;12.00;23.00;;;12.60;21.20;99016.88;4843394;29;114130;-89
2022/03/10 22:24:04;;;;;;;3.93;2.57;;;12.00;23.00;;;12.56;20.86;99011.13;4839634;29;124682;-90
2022/03/10 22:26:33;;;;;;;3.30;2.80;;;13.30;24.00;;;12.57;21.20;99021.09;4820121;29;123090;-87